Rockland, Massachusetts
Current Conditions -  °F | °C
As of 1:53 AM on Sunday 26 Oct 2014 (Local Time) from KOWD Reporting Station
Broken Clouds Broken Clouds  
Wind Chill: 55°   Ceiling: 12000
Heat Index: 55°   Visibility: 10mi
Dew Point: 46°   Wind: 7mph
Humidity: 72%   Direction: 240°WSW
Pressure: 29.48"   Gusts: NA
Location:  42.13°N, 70.92°W
Report Text: KOWD 260553Z AUTO 24006KT 10SM BKN120 13/08 A2948 RMK AO2 SLP981 T01280078 10133 20089 56018
Loading
Personal Weather Stations






























Interactive Weather Map
Tropical Storm Tracking
New forecast layout! Learn more

10-Day Weather Forecast

Advertisements
Track Severe Weather on mobile